createdAt,value
2022-08-31T00:00:32.613Z,4.30
2022-08-31T00:03:18.571Z,5.23
2022-08-31T00:05:46.021Z,5.43
2022-08-31T00:08:13.453Z,7.63
2022-08-31T00:10:43.229Z,5.50
2022-08-31T00:13:12.393Z,5.93
2022-08-31T00:15:40.097Z,5.37
2022-08-31T00:18:07.753Z,5.47
2022-08-31T00:20:35.369Z,5.00
2022-08-31T00:23:05.666Z,5.17
2022-08-31T00:25:34.232Z,5.53
2022-08-31T00:28:03.364Z,8.03
2022-08-31T00:30:31.392Z,7.13
2022-08-31T00:32:58.898Z,7.53
2022-08-31T00:35:29.170Z,7.70
2022-08-31T00:37:56.686Z,6.33
2022-08-31T00:40:24.834Z,6.50
2022-08-31T00:42:52.362Z,6.43
2022-08-31T00:45:20.252Z,7.50
2022-08-31T00:47:47.413Z,6.00
2022-08-31T00:50:18.165Z,10.70
2022-08-31T00:52:55.133Z,7.33
2022-08-31T00:55:35.441Z,8.77
2022-08-31T00:58:09.694Z,6.47
2022-08-31T01:00:37.814Z,6.10
2022-08-31T01:03:07.973Z,6.63
2022-08-31T01:05:37.242Z,7.00
2022-08-31T01:08:05.805Z,7.33
2022-08-31T01:10:39.573Z,9.40
2022-08-31T01:13:07.360Z,9.27
2022-08-31T01:15:36.934Z,10.80
2022-08-31T01:18:06.302Z,9.57
2022-08-31T01:21:10.524Z,7.80
2022-08-31T01:23:43.337Z,7.07
2022-08-31T01:26:15.664Z,7.47
2022-08-31T01:28:43.141Z,8.80
2022-08-31T01:31:36.936Z,7.63
2022-08-31T01:34:05.083Z,8.20
2022-08-31T01:36:34.316Z,8.30
2022-08-31T01:39:03.108Z,9.53
2022-08-31T01:41:30.329Z,8.50
2022-08-31T01:43:57.668Z,8.30
2022-08-31T01:46:25.708Z,8.07
2022-08-31T01:48:53.869Z,9.60
2022-08-31T01:51:22.985Z,7.40
2022-08-31T01:53:53.044Z,8.70
2022-08-31T01:56:33.507Z,9.30
2022-08-31T01:59:08.339Z,7.90
2022-08-31T02:01:56.111Z,7.80
2022-08-31T02:04:27.413Z,9.73
2022-08-31T02:06:59.617Z,7.70
2022-08-31T02:09:27.704Z,9.43
2022-08-31T02:11:55.163Z,9.73
2022-08-31T02:14:23.153Z,10.27
2022-08-31T02:16:50.415Z,10.13
2022-08-31T02:19:18.312Z,11.00
2022-08-31T02:21:45.483Z,8.63
2022-08-31T02:24:12.756Z,11.87
2022-08-31T02:26:40.053Z,9.97
2022-08-31T02:29:08.198Z,11.03
2022-08-31T02:31:36.369Z,9.73
2022-08-31T02:34:04.204Z,9.40
2022-08-31T02:36:32.405Z,8.77
2022-08-31T02:39:03.972Z,8.67
2022-08-31T02:41:33.534Z,8.90
2022-08-31T02:44:00.807Z,7.90
2022-08-31T02:46:27.871Z,7.83
2022-08-31T02:49:14.415Z,9.20
2022-08-31T02:51:44.398Z,7.40
2022-08-31T02:54:12.286Z,7.87
2022-08-31T02:56:39.834Z,7.67
2022-08-31T02:59:07.462Z,7.27
2022-08-31T03:01:36.402Z,8.90
2022-08-31T03:04:05.272Z,7.63
2022-08-31T03:06:33.755Z,6.77
2022-08-31T03:09:02.375Z,8.80
2022-08-31T03:11:30.563Z,8.03
2022-08-31T03:13:58.861Z,7.17
2022-08-31T03:16:27.266Z,6.73
2022-08-31T03:18:54.678Z,6.47
2022-08-31T03:21:21.809Z,6.30
2022-08-31T03:23:49.135Z,5.40
2022-08-31T03:26:16.618Z,6.37
2022-08-31T03:28:43.647Z,6.13
2022-08-31T03:31:33.747Z,6.43
2022-08-31T03:34:02.751Z,4.90
2022-08-31T03:36:29.966Z,5.73
2022-08-31T03:38:57.679Z,6.70
2022-08-31T03:41:26.821Z,7.60
2022-08-31T03:43:55.787Z,6.20
2022-08-31T03:46:23.592Z,5.63
2022-08-31T03:48:51.180Z,7.90
2022-08-31T03:51:20.341Z,6.27
2022-08-31T03:53:47.847Z,5.93
2022-08-31T03:56:22.235Z,5.13
2022-08-31T03:58:50.989Z,5.70
2022-08-31T04:01:43.474Z,7.43
2022-08-31T04:04:29.093Z,6.53
2022-08-31T04:07:15.139Z,6.33
2022-08-31T04:10:17.738Z,7.57
2022-08-31T04:13:05.145Z,5.77
2022-08-31T04:15:48.538Z,5.33
2022-08-31T04:18:34.980Z,8.47
2022-08-31T04:21:02.510Z,6.80
2022-08-31T04:23:30.210Z,7.03
2022-08-31T04:25:59.107Z,7.67
2022-08-31T04:28:26.591Z,6.83
2022-08-31T04:30:53.770Z,6.70
2022-08-31T04:33:21.688Z,6.30
2022-08-31T04:35:48.717Z,8.40
2022-08-31T04:38:16.090Z,7.30
2022-08-31T04:40:46.470Z,5.63
2022-08-31T04:43:13.535Z,6.83
2022-08-31T04:45:44.678Z,6.10
2022-08-31T04:48:14.580Z,8.00
2022-08-31T04:50:43.319Z,6.00
2022-08-31T04:53:11.235Z,8.40
2022-08-31T04:55:43.296Z,7.10
2022-08-31T04:58:12.955Z,7.50
2022-08-31T05:00:44.904Z,5.43
2022-08-31T05:03:14.702Z,7.83
2022-08-31T05:05:42.399Z,7.40
2022-08-31T05:08:10.102Z,8.50
2022-08-31T05:10:37.079Z,6.37
2022-08-31T05:13:04.485Z,6.43
2022-08-31T05:15:34.020Z,8.23
2022-08-31T05:18:01.314Z,9.20
2022-08-31T05:20:32.260Z,5.10
2022-08-31T05:22:59.770Z,6.97
2022-08-31T05:25:27.466Z,5.10
2022-08-31T05:27:54.979Z,5.80
2022-08-31T05:30:22.986Z,5.73
2022-08-31T05:33:06.529Z,10.07
2022-08-31T05:35:35.195Z,5.93
2022-08-31T05:38:02.333Z,4.93
2022-08-31T05:40:29.451Z,9.37
2022-08-31T05:42:59.493Z,6.37
2022-08-31T05:45:26.896Z,9.13
2022-08-31T05:47:54.262Z,9.10
2022-08-31T05:50:21.382Z,7.70
2022-08-31T05:52:49.705Z,9.13
2022-08-31T05:55:16.885Z,6.00
2022-08-31T05:57:44.331Z,8.80
2022-08-31T06:00:12.463Z,7.53
2022-08-31T06:02:42.276Z,7.83
2022-08-31T06:05:12.496Z,6.10
2022-08-31T06:07:40.005Z,8.50
2022-08-31T06:10:11.772Z,7.67
2022-08-31T06:12:44.383Z,6.77
2022-08-31T06:15:11.915Z,7.30
2022-08-31T06:17:39.253Z,5.93
2022-08-31T06:20:07.156Z,7.10
2022-08-31T06:22:36.045Z,7.00
2022-08-31T06:25:07.080Z,7.60
2022-08-31T06:27:38.757Z,7.50
2022-08-31T06:30:07.902Z,7.20
2022-08-31T06:32:35.120Z,9.23
2022-08-31T06:35:04.585Z,8.37
2022-08-31T06:37:50.234Z,6.87
2022-08-31T06:40:37.268Z,8.00
2022-08-31T06:43:32.048Z,6.70
2022-08-31T06:46:02.362Z,7.53
2022-08-31T06:48:33.210Z,7.77
2022-08-31T06:51:00.817Z,8.00
2022-08-31T06:53:29.623Z,8.17
2022-08-31T06:56:20.126Z,9.50
2022-08-31T06:59:12.509Z,10.07
2022-08-31T07:02:01.567Z,9.13
2022-08-31T07:04:36.718Z,8.57
2022-08-31T07:07:06.296Z,9.07
2022-08-31T07:09:34.324Z,9.60
2022-08-31T07:12:01.381Z,8.63
2022-08-31T07:14:29.891Z,12.17
2022-08-31T07:16:59.906Z,7.00
2022-08-31T07:19:27.679Z,7.57
2022-08-31T07:22:00.545Z,8.70
2022-08-31T07:24:35.448Z,8.70
2022-08-31T07:27:12.099Z,7.23
2022-08-31T07:30:06.261Z,8.57
2022-08-31T07:32:34.475Z,8.37
2022-08-31T07:35:02.444Z,6.83
2022-08-31T07:37:51.642Z,5.50
2022-08-31T07:40:42.544Z,7.00
2022-08-31T07:43:13.097Z,6.90
2022-08-31T07:45:42.262Z,6.93
2022-08-31T07:48:15.346Z,6.57
2022-08-31T07:51:05.231Z,6.30
2022-08-31T07:53:47.716Z,7.13
2022-08-31T07:56:38.453Z,6.70
2022-08-31T07:59:11.435Z,6.67
2022-08-31T08:01:41.491Z,7.20
2022-08-31T08:04:12.201Z,6.50
2022-08-31T08:07:00.571Z,6.33
2022-08-31T08:09:55.245Z,6.17
2022-08-31T08:12:48.566Z,6.63
2022-08-31T08:15:25.942Z,5.37
2022-08-31T08:18:14.088Z,4.47
2022-08-31T08:20:49.502Z,3.27
2022-08-31T08:23:17.996Z,3.93
2022-08-31T08:26:21.220Z,5.40
2022-08-31T08:29:08.538Z,3.00
2022-08-31T08:31:42.750Z,2.30
2022-08-31T08:34:10.907Z,5.30
2022-08-31T08:36:39.588Z,3.43
2022-08-31T08:39:09.916Z,4.07
2022-08-31T08:41:49.406Z,4.37
2022-08-31T08:44:18.552Z,3.83
2022-08-31T08:46:59.960Z,3.13
2022-08-31T08:50:07.410Z,6.93
2022-08-31T08:52:42.549Z,3.30
2022-08-31T08:55:22.128Z,3.23
2022-08-31T08:57:52.266Z,3.27
2022-08-31T09:00:26.803Z,3.10
2022-08-31T09:03:44.395Z,2.90
2022-08-31T09:06:54.462Z,3.03
2022-08-31T09:10:15.172Z,3.37
2022-08-31T09:13:03.201Z,3.27
2022-08-31T09:15:45.571Z,3.50
2022-08-31T09:19:03.654Z,3.30
2022-08-31T09:21:38.801Z,2.90
2022-08-31T09:24:30.162Z,3.23
2022-08-31T09:27:36.720Z,2.80
2022-08-31T09:30:06.295Z,3.43
2022-08-31T09:32:36.207Z,3.00
2022-08-31T09:35:09.274Z,3.43
2022-08-31T09:37:45.182Z,3.50
2022-08-31T09:40:38.360Z,2.80
2022-08-31T09:43:13.819Z,3.63
2022-08-31T09:46:07.301Z,4.30
2022-08-31T09:48:56.452Z,5.30
2022-08-31T09:51:31.355Z,3.10
2022-08-31T09:54:33.149Z,4.10
2022-08-31T09:57:07.299Z,5.60
2022-08-31T09:59:50.044Z,3.30
2022-08-31T10:02:26.604Z,3.67
2022-08-31T10:05:17.828Z,3.27
2022-08-31T10:08:04.547Z,3.67
2022-08-31T10:10:37.803Z,3.10
2022-08-31T10:13:34.379Z,2.87
2022-08-31T10:16:23.042Z,5.43
2022-08-31T10:19:20.293Z,3.80
2022-08-31T10:21:52.135Z,4.60
2022-08-31T10:24:44.879Z,3.80
2022-08-31T10:27:32.240Z,3.90
2022-08-31T10:30:22.830Z,3.63
2022-08-31T10:33:23.962Z,3.00
2022-08-31T10:36:00.343Z,3.13
2022-08-31T10:38:42.997Z,4.23
2022-08-31T10:41:11.450Z,2.70
2022-08-31T10:44:06.308Z,2.03
2022-08-31T10:46:35.319Z,2.83
2022-08-31T10:49:04.789Z,2.47
2022-08-31T10:51:55.927Z,2.80
2022-08-31T10:54:50.689Z,2.73
2022-08-31T10:58:12.047Z,2.53
2022-08-31T11:01:00.715Z,3.53
2022-08-31T11:04:01.272Z,2.87
2022-08-31T11:07:12.238Z,2.50
2022-08-31T11:09:47.901Z,3.53
2022-08-31T11:12:23.433Z,2.93
2022-08-31T11:15:51.640Z,2.53
2022-08-31T11:19:11.458Z,3.33
2022-08-31T11:22:02.855Z,2.67
2022-08-31T11:25:04.763Z,2.00
2022-08-31T11:27:51.061Z,2.03
2022-08-31T11:30:29.246Z,5.03
2022-08-31T11:33:00.886Z,2.63
2022-08-31T11:35:49.916Z,2.53
2022-08-31T11:38:48.720Z,2.20
2022-08-31T11:41:39.417Z,6.67
2022-08-31T11:44:10.492Z,2.57
2022-08-31T11:46:40.261Z,4.17
2022-08-31T11:49:10.886Z,2.07
2022-08-31T11:51:41.629Z,3.93
2022-08-31T11:54:35.992Z,2.30
2022-08-31T11:57:05.555Z,2.77
2022-08-31T11:59:38.651Z,2.70
2022-08-31T12:02:21.064Z,2.60
2022-08-31T12:04:58.780Z,2.50
2022-08-31T12:07:36.515Z,2.70
2022-08-31T12:10:16.797Z,2.80
2022-08-31T12:13:07.741Z,3.07
2022-08-31T12:16:15.582Z,2.37
2022-08-31T12:20:01.310Z,2.20
2022-08-31T12:23:29.824Z,4.00
2022-08-31T12:26:39.633Z,3.20
2022-08-31T12:29:28.626Z,2.87
2022-08-31T12:32:23.043Z,2.70
2022-08-31T12:35:17.353Z,2.30
2022-08-31T12:37:45.239Z,2.40
2022-08-31T12:40:21.496Z,2.67
2022-08-31T12:42:56.611Z,2.83
2022-08-31T12:46:12.952Z,2.93
2022-08-31T12:49:00.099Z,3.10
2022-08-31T12:51:48.547Z,2.83
2022-08-31T12:54:53.925Z,3.40
2022-08-31T12:57:42.855Z,5.43
2022-08-31T13:00:33.353Z,5.13
2022-08-31T13:03:12.338Z,2.47
2022-08-31T13:05:40.026Z,3.50
2022-08-31T13:08:25.247Z,2.63
2022-08-31T13:10:52.655Z,3.60
2022-08-31T13:13:30.528Z,2.87
2022-08-31T13:16:04.831Z,4.07
2022-08-31T13:18:32.080Z,3.97
2022-08-31T13:21:06.021Z,3.17
2022-08-31T13:23:40.791Z,5.47
2022-08-31T13:26:20.780Z,4.43
2022-08-31T13:29:04.046Z,2.63
2022-08-31T13:31:35.657Z,3.30
2022-08-31T13:34:07.628Z,3.20
2022-08-31T13:36:53.766Z,4.10
2022-08-31T13:39:31.819Z,3.10
2022-08-31T13:42:24.143Z,3.30
2022-08-31T13:45:04.018Z,3.70
2022-08-31T13:47:37.970Z,5.40
2022-08-31T13:50:32.866Z,7.20
2022-08-31T13:53:44.157Z,5.33
2022-08-31T13:55:51.724Z,3.53
2022-08-31T13:58:32.471Z,4.53
2022-08-31T14:01:39.839Z,3.43
2022-08-31T14:04:39.190Z,3.80
2022-08-31T14:07:06.213Z,3.50
2022-08-31T14:09:33.365Z,3.70
2022-08-31T14:12:05.419Z,5.90
2022-08-31T14:14:43.386Z,3.23
2022-08-31T14:17:16.565Z,3.27
2022-08-31T14:19:45.221Z,3.40
2022-08-31T14:22:40.039Z,3.20
2022-08-31T14:25:12.279Z,4.57
2022-08-31T14:27:41.702Z,3.83
2022-08-31T14:30:09.975Z,3.00
2022-08-31T14:32:37.227Z,5.10
2022-08-31T14:35:11.726Z,3.20
2022-08-31T14:37:42.389Z,3.17
2022-08-31T14:40:10.014Z,3.13
2022-08-31T14:42:39.248Z,2.80
2022-08-31T14:45:20.897Z,3.50
2022-08-31T14:47:52.159Z,5.93
2022-08-31T14:50:25.483Z,2.13
2022-08-31T14:52:55.243Z,3.30
2022-08-31T14:55:26.449Z,3.03
2022-08-31T14:58:03.222Z,3.77
2022-08-31T15:00:32.539Z,4.20
2022-08-31T15:03:01.172Z,5.00
2022-08-31T15:05:28.754Z,2.77
2022-08-31T15:07:56.845Z,3.23
2022-08-31T15:10:25.889Z,3.40
2022-08-31T15:12:54.205Z,4.00
2022-08-31T15:15:21.544Z,3.13
2022-08-31T15:17:51.721Z,2.57
2022-08-31T15:20:21.057Z,3.27
2022-08-31T15:22:49.065Z,3.27
2022-08-31T15:25:18.532Z,4.50
2022-08-31T15:27:46.716Z,2.40
2022-08-31T15:30:18.824Z,2.83
2022-08-31T15:32:48.166Z,2.60
2022-08-31T15:35:24.342Z,2.67
2022-08-31T15:37:58.657Z,3.07
2022-08-31T15:40:29.519Z,2.90
2022-08-31T15:42:57.213Z,2.43
2022-08-31T15:45:28.253Z,3.90
2022-08-31T15:48:14.265Z,3.07
2022-08-31T15:50:52.783Z,5.30
2022-08-31T15:53:27.411Z,2.63
2022-08-31T15:55:54.943Z,3.30
2022-08-31T15:58:25.063Z,5.90
2022-08-31T16:00:52.915Z,3.17
2022-08-31T16:03:20.115Z,2.57
2022-08-31T16:05:47.247Z,2.50
2022-08-31T16:08:14.488Z,3.20
2022-08-31T16:10:44.924Z,5.70
2022-08-31T16:13:12.920Z,3.00
2022-08-31T16:15:40.758Z,4.70
2022-08-31T16:18:08.289Z,4.37
2022-08-31T16:20:36.343Z,4.03
2022-08-31T16:23:03.477Z,4.67
2022-08-31T16:25:47.754Z,4.43
2022-08-31T16:28:21.236Z,4.47
2022-08-31T16:30:51.509Z,3.93
2022-08-31T16:33:19.795Z,4.80
2022-08-31T16:35:47.984Z,5.90
2022-08-31T16:38:15.515Z,5.23
2022-08-31T16:40:42.789Z,4.50
2022-08-31T16:43:10.555Z,4.13
2022-08-31T16:45:41.969Z,3.70
2022-08-31T16:48:29.617Z,4.83
2022-08-31T16:50:58.130Z,3.90
2022-08-31T16:53:25.879Z,4.20
2022-08-31T16:55:53.468Z,5.27
2022-08-31T16:58:47.658Z,4.20
2022-08-31T17:01:15.264Z,3.97
2022-08-31T17:03:50.567Z,3.50
2022-08-31T17:06:18.843Z,6.83
2022-08-31T17:08:47.092Z,3.87
2022-08-31T17:11:32.852Z,3.50
2022-08-31T17:14:03.741Z,4.63
2022-08-31T17:16:37.885Z,4.17
2022-08-31T17:19:11.556Z,4.00
2022-08-31T17:21:50.357Z,3.60
2022-08-31T17:24:38.776Z,5.50
2022-08-31T17:27:10.307Z,4.00
2022-08-31T17:29:48.048Z,4.30
2022-08-31T17:32:22.943Z,4.30
2022-08-31T17:34:51.801Z,4.03
2022-08-31T17:37:32.774Z,4.10
2022-08-31T17:40:00.484Z,3.10
2022-08-31T17:42:28.505Z,4.20
2022-08-31T17:44:58.062Z,3.40
2022-08-31T17:47:26.506Z,3.67
2022-08-31T17:49:54.141Z,3.87
2022-08-31T17:52:23.165Z,3.80
2022-08-31T17:54:53.531Z,3.90
2022-08-31T17:57:25.345Z,5.57
2022-08-31T17:59:55.061Z,3.73
2022-08-31T18:02:34.560Z,4.50
2022-08-31T18:05:03.827Z,4.17
2022-08-31T18:07:38.834Z,6.40
2022-08-31T18:10:06.323Z,8.50
2022-08-31T18:12:41.287Z,5.67
2022-08-31T18:15:12.333Z,4.27
2022-08-31T18:17:40.183Z,4.80
2022-08-31T18:20:08.510Z,4.57
2022-08-31T18:22:35.614Z,7.23
2022-08-31T18:25:02.963Z,4.83
2022-08-31T18:27:29.983Z,7.93
2022-08-31T18:29:58.942Z,6.93
2022-08-31T18:32:27.758Z,8.07
2022-08-31T18:34:57.401Z,7.30
2022-08-31T18:37:25.895Z,4.10
2022-08-31T18:40:12.190Z,4.90
2022-08-31T18:42:57.785Z,7.57
2022-08-31T18:45:27.880Z,5.90
2022-08-31T18:50:48.603Z,4.47
2022-08-31T18:53:28.688Z,5.13
2022-08-31T18:56:09.259Z,4.80
2022-08-31T18:58:38.355Z,4.43
2022-08-31T19:01:08.158Z,3.53
2022-08-31T19:03:37.864Z,5.37
2022-08-31T19:06:06.807Z,4.93
2022-08-31T19:08:35.293Z,4.53
2022-08-31T19:11:07.176Z,4.43
2022-08-31T19:13:34.671Z,4.43
2022-08-31T19:16:08.119Z,4.70
2022-08-31T19:18:44.402Z,5.27
2022-08-31T19:21:33.605Z,5.07
2022-08-31T19:24:05.227Z,6.73
2022-08-31T19:26:44.823Z,6.50
2022-08-31T19:29:14.989Z,8.27
2022-08-31T19:31:46.453Z,5.83
2022-08-31T19:34:20.015Z,4.00
2022-08-31T19:36:53.902Z,5.20
2022-08-31T19:39:25.564Z,3.33
2022-08-31T19:42:00.048Z,4.13
2022-08-31T19:44:28.501Z,4.10
2022-08-31T19:46:56.975Z,6.20
2022-08-31T19:49:26.633Z,4.13
2022-08-31T19:51:58.393Z,4.37
2022-08-31T19:54:31.360Z,6.80
2022-08-31T19:56:59.871Z,4.23
2022-08-31T19:59:27.300Z,4.20
2022-08-31T20:01:56.838Z,5.70
2022-08-31T20:04:27.921Z,4.60
2022-08-31T20:06:57.372Z,4.40
2022-08-31T20:09:26.461Z,5.03
2022-08-31T20:11:56.839Z,3.90
2022-08-31T20:14:24.383Z,3.67
2022-08-31T20:16:52.304Z,4.47
2022-08-31T20:19:25.310Z,6.20
2022-08-31T20:22:00.277Z,4.20
2022-08-31T20:24:27.743Z,5.00
2022-08-31T20:27:00.137Z,4.40
2022-08-31T20:29:29.722Z,4.77
2022-08-31T20:32:00.738Z,3.77
2022-08-31T20:34:28.224Z,6.00
2022-08-31T20:37:01.204Z,4.97
2022-08-31T20:39:31.761Z,5.07
2022-08-31T20:42:00.606Z,4.63
2022-08-31T20:44:35.076Z,5.20
2022-08-31T20:47:28.011Z,5.00
2022-08-31T20:49:58.789Z,3.93
2022-08-31T20:52:29.989Z,4.00
2022-08-31T20:55:01.702Z,4.30
2022-08-31T20:57:35.249Z,3.73
2022-08-31T21:00:05.730Z,4.97
2022-08-31T21:02:34.757Z,4.13
2022-08-31T21:05:27.254Z,4.63
2022-08-31T21:07:49.641Z,4.13
2022-08-31T21:10:16.706Z,5.20
2022-08-31T21:12:50.239Z,3.83
2022-08-31T21:15:22.268Z,4.43
2022-08-31T21:17:57.811Z,4.60
2022-08-31T21:20:25.498Z,4.20
2022-08-31T21:22:53.426Z,4.70
2022-08-31T21:25:21.239Z,4.90
2022-08-31T21:27:48.312Z,4.10
2022-08-31T21:30:15.736Z,4.57
2022-08-31T21:32:42.876Z,4.63
2022-08-31T21:35:11.309Z,4.60
2022-08-31T21:37:38.380Z,4.93
2022-08-31T21:40:06.846Z,4.10
2022-08-31T21:42:34.002Z,4.23
2022-08-31T21:45:00.965Z,4.67
2022-08-31T21:47:28.515Z,5.23
2022-08-31T21:49:55.837Z,4.20
2022-08-31T21:52:22.838Z,5.17
2022-08-31T21:54:51.526Z,4.90
2022-08-31T21:57:19.044Z,5.40
2022-08-31T21:59:46.035Z,5.00
2022-08-31T22:02:13.972Z,11.20
2022-08-31T22:04:44.229Z,5.53
2022-08-31T22:07:14.586Z,5.93
2022-08-31T22:09:43.305Z,4.93
2022-08-31T22:12:12.572Z,6.20
2022-08-31T22:14:41.419Z,6.10
2022-08-31T22:17:09.414Z,7.57
2022-08-31T22:19:39.684Z,6.40
2022-08-31T22:22:11.699Z,6.20
2022-08-31T22:24:40.454Z,6.90
2022-08-31T22:27:10.450Z,6.20
2022-08-31T22:29:40.722Z,7.10
2022-08-31T22:32:13.803Z,7.63
2022-08-31T22:34:42.765Z,6.03
2022-08-31T22:37:11.721Z,6.20
2022-08-31T22:39:42.385Z,6.07
2022-08-31T22:42:09.765Z,5.80
2022-08-31T22:44:37.843Z,5.90
2022-08-31T22:47:05.493Z,6.03
2022-08-31T22:49:32.962Z,6.90
2022-08-31T22:52:00.271Z,5.73
2022-08-31T22:54:27.671Z,4.40
2022-08-31T22:56:55.192Z,6.53
2022-08-31T22:59:27.642Z,6.47
2022-08-31T23:02:03.610Z,5.20
2022-08-31T23:04:34.460Z,5.03
2022-08-31T23:07:04.312Z,8.53
2022-08-31T23:09:34.043Z,5.57
2022-08-31T23:12:05.390Z,4.90
2022-08-31T23:14:32.769Z,6.73
2022-08-31T23:17:04.192Z,4.50
2022-08-31T23:19:43.687Z,4.33
2022-08-31T23:22:15.291Z,4.00
2022-08-31T23:24:49.662Z,4.83
2022-08-31T23:27:21.549Z,5.43
2022-08-31T23:29:53.596Z,6.20
2022-08-31T23:32:27.770Z,5.37
2022-08-31T23:34:58.473Z,4.60
2022-08-31T23:37:27.508Z,4.30
2022-08-31T23:42:41.926Z,5.60
2022-08-31T23:45:11.230Z,8.10
2022-08-31T23:47:39.213Z,5.37
2022-08-31T23:50:09.314Z,4.77
2022-08-31T23:52:41.561Z,7.60
2022-08-31T23:55:11.177Z,5.83
2022-08-31T23:57:39.527Z,5.03
